sensor_id;sensor_type;location;lat;lon;timestamp;temperature;humidity
51215;DHT22;63849;47.546;19.254;2023-03-23T00:01:25;9.20;66.10
51215;DHT22;63849;47.546;19.254;2023-03-23T00:03:53;9.20;65.70
51215;DHT22;63849;47.546;19.254;2023-03-23T00:06:23;9.20;65.80
51215;DHT22;63849;47.546;19.254;2023-03-23T00:08:50;9.30;65.50
51215;DHT22;63849;47.546;19.254;2023-03-23T00:11:23;9.20;65.50
51215;DHT22;63849;47.546;19.254;2023-03-23T00:13:52;9.10;65.60
51215;DHT22;63849;47.546;19.254;2023-03-23T00:16:22;9.10;65.60
51215;DHT22;63849;47.546;19.254;2023-03-23T00:19:06;9.10;65.80
51215;DHT22;63849;47.546;19.254;2023-03-23T00:21:37;9.10;65.70
51215;DHT22;63849;47.546;19.254;2023-03-23T00:24:15;9.00;66.10
51215;DHT22;63849;47.546;19.254;2023-03-23T00:26:43;9.00;66.00
51215;DHT22;63849;47.546;19.254;2023-03-23T00:29:21;8.80;66.40
51215;DHT22;63849;47.546;19.254;2023-03-23T00:31:48;9.00;66.10
51215;DHT22;63849;47.546;19.254;2023-03-23T00:34:19;8.90;66.00
51215;DHT22;63849;47.546;19.254;2023-03-23T00:36:47;8.90;66.30
51215;DHT22;63849;47.546;19.254;2023-03-23T00:39:14;8.90;66.00
51215;DHT22;63849;47.546;19.254;2023-03-23T00:41:45;8.90;66.30
51215;DHT22;63849;47.546;19.254;2023-03-23T00:44:11;9.00;66.20
51215;DHT22;63849;47.546;19.254;2023-03-23T00:46:43;8.90;66.00
51215;DHT22;63849;47.546;19.254;2023-03-23T00:49:16;8.80;66.10
51215;DHT22;63849;47.546;19.254;2023-03-23T00:51:42;8.80;66.40
51215;DHT22;63849;47.546;19.254;2023-03-23T00:54:08;8.60;67.10
51215;DHT22;63849;47.546;19.254;2023-03-23T00:56:35;8.80;66.80
51215;DHT22;63849;47.546;19.254;2023-03-23T00:59:01;8.70;66.50
51215;DHT22;63849;47.546;19.254;2023-03-23T01:01:27;8.30;67.60
51215;DHT22;63849;47.546;19.254;2023-03-23T01:03:52;8.50;67.50
51215;DHT22;63849;47.546;19.254;2023-03-23T01:06:27;8.50;67.60
51215;DHT22;63849;47.546;19.254;2023-03-23T01:08:54;8.70;67.10
51215;DHT22;63849;47.546;19.254;2023-03-23T01:11:20;8.80;66.50
51215;DHT22;63849;47.546;19.254;2023-03-23T01:13:46;8.70;66.50
51215;DHT22;63849;47.546;19.254;2023-03-23T01:16:12;8.60;66.90
51215;DHT22;63849;47.546;19.254;2023-03-23T01:18:39;8.00;68.50
51215;DHT22;63849;47.546;19.254;2023-03-23T01:21:10;8.20;68.50
51215;DHT22;63849;47.546;19.254;2023-03-23T01:23:37;8.50;67.40
51215;DHT22;63849;47.546;19.254;2023-03-23T01:26:05;8.60;66.80
51215;DHT22;63849;47.546;19.254;2023-03-23T01:28:33;8.50;67.00
51215;DHT22;63849;47.546;19.254;2023-03-23T01:31:05;8.30;67.60
51215;DHT22;63849;47.546;19.254;2023-03-23T01:33:32;8.50;67.00
51215;DHT22;63849;47.546;19.254;2023-03-23T01:36:01;8.60;66.80
51215;DHT22;63849;47.546;19.254;2023-03-23T01:38:28;8.60;66.70
51215;DHT22;63849;47.546;19.254;2023-03-23T01:40:53;8.40;67.00
51215;DHT22;63849;47.546;19.254;2023-03-23T01:43:19;8.30;68.00
51215;DHT22;63849;47.546;19.254;2023-03-23T01:45:45;8.40;67.40
51215;DHT22;63849;47.546;19.254;2023-03-23T01:48:40;8.00;68.00
51215;DHT22;63849;47.546;19.254;2023-03-23T01:51:14;8.00;68.90
51215;DHT22;63849;47.546;19.254;2023-03-23T01:53:51;8.20;68.50
51215;DHT22;63849;47.546;19.254;2023-03-23T01:56:22;8.20;67.80
51215;DHT22;63849;47.546;19.254;2023-03-23T01:58:53;7.90;69.10
51215;DHT22;63849;47.546;19.254;2023-03-23T02:01:21;8.30;68.00
51215;DHT22;63849;47.546;19.254;2023-03-23T02:03:47;8.10;68.40
51215;DHT22;63849;47.546;19.254;2023-03-23T02:06:14;7.90;68.70
51215;DHT22;63849;47.546;19.254;2023-03-23T02:08:41;8.10;68.60
51215;DHT22;63849;47.546;19.254;2023-03-23T02:11:20;8.10;68.20
51215;DHT22;63849;47.546;19.254;2023-03-23T02:13:47;8.00;68.00
51215;DHT22;63849;47.546;19.254;2023-03-23T02:22:18;8.10;68.40
51215;DHT22;63849;47.546;19.254;2023-03-23T02:33:28;7.80;69.10
51215;DHT22;63849;47.546;19.254;2023-03-23T02:41:33;7.60;69.80
51215;DHT22;63849;47.546;19.254;2023-03-23T02:44:03;8.00;69.00
51215;DHT22;63849;47.546;19.254;2023-03-23T02:46:30;7.90;69.10
51215;DHT22;63849;47.546;19.254;2023-03-23T02:48:58;8.00;69.10
51215;DHT22;63849;47.546;19.254;2023-03-23T02:51:26;8.10;68.50
51215;DHT22;63849;47.546;19.254;2023-03-23T02:53:55;8.00;68.30
51215;DHT22;63849;47.546;19.254;2023-03-23T02:56:23;7.70;70.10
51215;DHT22;63849;47.546;19.254;2023-03-23T02:58:50;8.00;69.10
51215;DHT22;63849;47.546;19.254;2023-03-23T03:04:28;7.70;70.10
51215;DHT22;63849;47.546;19.254;2023-03-23T03:10:13;7.90;69.20
51215;DHT22;63849;47.546;19.254;2023-03-23T03:12:53;7.90;68.90
51215;DHT22;63849;47.546;19.254;2023-03-23T03:15:31;7.90;68.90
51215;DHT22;63849;47.546;19.254;2023-03-23T03:18:18;8.00;69.20
51215;DHT22;63849;47.546;19.254;2023-03-23T03:20:53;8.00;69.00
51215;DHT22;63849;47.546;19.254;2023-03-23T03:23:24;8.10;69.10
51215;DHT22;63849;47.546;19.254;2023-03-23T03:25:51;7.90;69.30
51215;DHT22;63849;47.546;19.254;2023-03-23T03:28:21;8.00;68.90
51215;DHT22;63849;47.546;19.254;2023-03-23T03:30:53;7.90;68.80
51215;DHT22;63849;47.546;19.254;2023-03-23T03:33:20;7.90;68.70
51215;DHT22;63849;47.546;19.254;2023-03-23T03:35:54;7.90;68.80
51215;DHT22;63849;47.546;19.254;2023-03-23T03:38:21;7.70;69.40
51215;DHT22;63849;47.546;19.254;2023-03-23T03:40:47;7.80;69.50
51215;DHT22;63849;47.546;19.254;2023-03-23T03:43:13;7.80;69.70
51215;DHT22;63849;47.546;19.254;2023-03-23T03:45:38;7.80;69.60
51215;DHT22;63849;47.546;19.254;2023-03-23T03:48:05;7.60;70.10
51215;DHT22;63849;47.546;19.254;2023-03-23T03:50:30;7.80;69.60
51215;DHT22;63849;47.546;19.254;2023-03-23T03:52:57;7.80;69.40
51215;DHT22;63849;47.546;19.254;2023-03-23T03:55:23;7.80;69.20
51215;DHT22;63849;47.546;19.254;2023-03-23T03:57:49;7.70;69.80
51215;DHT22;63849;47.546;19.254;2023-03-23T04:00:16;7.60;70.20
51215;DHT22;63849;47.546;19.254;2023-03-23T04:02:46;7.80;70.00
51215;DHT22;63849;47.546;19.254;2023-03-23T04:05:17;7.60;70.20
51215;DHT22;63849;47.546;19.254;2023-03-23T04:07:44;7.60;70.50
51215;DHT22;63849;47.546;19.254;2023-03-23T04:10:11;7.80;70.00
51215;DHT22;63849;47.546;19.254;2023-03-23T04:12:41;7.70;69.70
51215;DHT22;63849;47.546;19.254;2023-03-23T04:15:08;7.80;69.80
51215;DHT22;63849;47.546;19.254;2023-03-23T04:17:34;7.80;69.60
51215;DHT22;63849;47.546;19.254;2023-03-23T04:20:01;7.80;69.70
51215;DHT22;63849;47.546;19.254;2023-03-23T04:22:32;7.80;69.30
51215;DHT22;63849;47.546;19.254;2023-03-23T04:25:00;7.70;70.30
51215;DHT22;63849;47.546;19.254;2023-03-23T04:27:27;7.50;70.70
51215;DHT22;63849;47.546;19.254;2023-03-23T04:29:57;7.60;70.40
51215;DHT22;63849;47.546;19.254;2023-03-23T04:32:27;7.70;70.10
51215;DHT22;63849;47.546;19.254;2023-03-23T04:34:58;7.80;69.60
51215;DHT22;63849;47.546;19.254;2023-03-23T04:37:26;7.80;69.20
51215;DHT22;63849;47.546;19.254;2023-03-23T04:39:57;7.80;69.50
51215;DHT22;63849;47.546;19.254;2023-03-23T04:42:28;7.80;69.40
51215;DHT22;63849;47.546;19.254;2023-03-23T04:44:54;7.80;69.20
51215;DHT22;63849;47.546;19.254;2023-03-23T04:47:21;7.80;69.40
51215;DHT22;63849;47.546;19.254;2023-03-23T04:49:46;7.70;69.60
51215;DHT22;63849;47.546;19.254;2023-03-23T04:52:12;7.70;69.60
51215;DHT22;63849;47.546;19.254;2023-03-23T04:54:39;7.70;69.50
51215;DHT22;63849;47.546;19.254;2023-03-23T04:57:05;7.60;69.80
51215;DHT22;63849;47.546;19.254;2023-03-23T04:59:34;7.60;70.00
51215;DHT22;63849;47.546;19.254;2023-03-23T05:02:00;7.70;69.80
51215;DHT22;63849;47.546;19.254;2023-03-23T05:04:25;7.80;69.70
51215;DHT22;63849;47.546;19.254;2023-03-23T05:06:52;7.80;69.50
51215;DHT22;63849;47.546;19.254;2023-03-23T05:09:17;7.80;70.10
51215;DHT22;63849;47.546;19.254;2023-03-23T05:11:43;7.80;70.20
51215;DHT22;63849;47.546;19.254;2023-03-23T05:14:09;7.90;69.80
51215;DHT22;63849;47.546;19.254;2023-03-23T05:16:35;7.90;69.70
51215;DHT22;63849;47.546;19.254;2023-03-23T05:19:04;7.90;69.50
51215;DHT22;63849;47.546;19.254;2023-03-23T05:21:33;7.80;69.90
51215;DHT22;63849;47.546;19.254;2023-03-23T05:24:00;7.90;70.10
51215;DHT22;63849;47.546;19.254;2023-03-23T05:26:26;8.00;69.80
51215;DHT22;63849;47.546;19.254;2023-03-23T05:28:55;8.00;70.10
51215;DHT22;63849;47.546;19.254;2023-03-23T05:31:22;8.20;69.90
51215;DHT22;63849;47.546;19.254;2023-03-23T05:33:50;8.20;70.00
51215;DHT22;63849;47.546;19.254;2023-03-23T05:36:16;8.30;70.10
51215;DHT22;63849;47.546;19.254;2023-03-23T05:38:42;8.30;70.50
51215;DHT22;63849;47.546;19.254;2023-03-23T05:41:14;8.40;70.60
51215;DHT22;63849;47.546;19.254;2023-03-23T05:43:40;8.50;70.70
51215;DHT22;63849;47.546;19.254;2023-03-23T05:46:06;8.60;69.90
51215;DHT22;63849;47.546;19.254;2023-03-23T05:48:34;8.80;70.00
51215;DHT22;63849;47.546;19.254;2023-03-23T05:51:00;8.90;69.20
51215;DHT22;63849;47.546;19.254;2023-03-23T05:53:26;9.10;68.70
51215;DHT22;63849;47.546;19.254;2023-03-23T05:55:52;9.20;67.80
51215;DHT22;63849;47.546;19.254;2023-03-23T05:58:18;9.30;68.30
51215;DHT22;63849;47.546;19.254;2023-03-23T06:00:44;9.40;67.40
51215;DHT22;63849;47.546;19.254;2023-03-23T06:03:12;9.60;66.60
51215;DHT22;63849;47.546;19.254;2023-03-23T06:05:43;9.60;66.80
51215;DHT22;63849;47.546;19.254;2023-03-23T06:08:09;9.90;67.20
51215;DHT22;63849;47.546;19.254;2023-03-23T06:10:35;10.10;65.80
51215;DHT22;63849;47.546;19.254;2023-03-23T06:13:02;10.20;65.90
51215;DHT22;63849;47.546;19.254;2023-03-23T06:15:28;10.40;65.60
51215;DHT22;63849;47.546;19.254;2023-03-23T06:18:04;10.60;65.80
51215;DHT22;63849;47.546;19.254;2023-03-23T06:20:34;10.70;64.80
51215;DHT22;63849;47.546;19.254;2023-03-23T06:23:00;10.80;63.80
51215;DHT22;63849;47.546;19.254;2023-03-23T06:25:28;11.00;65.00
51215;DHT22;63849;47.546;19.254;2023-03-23T06:27:54;11.20;63.90
51215;DHT22;63849;47.546;19.254;2023-03-23T06:30:20;11.40;63.20
51215;DHT22;63849;47.546;19.254;2023-03-23T06:32:46;11.50;63.40
51215;DHT22;63849;47.546;19.254;2023-03-23T06:35:13;11.70;63.90
51215;DHT22;63849;47.546;19.254;2023-03-23T06:37:39;11.80;61.90
51215;DHT22;63849;47.546;19.254;2023-03-23T06:40:06;12.00;62.80
51215;DHT22;63849;47.546;19.254;2023-03-23T06:42:32;12.20;62.50
51215;DHT22;63849;47.546;19.254;2023-03-23T06:44:59;12.40;62.60
51215;DHT22;63849;47.546;19.254;2023-03-23T06:47:26;12.50;61.10
51215;DHT22;63849;47.546;19.254;2023-03-23T06:49:55;12.50;61.20
51215;DHT22;63849;47.546;19.254;2023-03-23T06:52:22;12.60;59.40
51215;DHT22;63849;47.546;19.254;2023-03-23T06:54:52;12.60;60.00
51215;DHT22;63849;47.546;19.254;2023-03-23T06:57:18;12.80;61.30
51215;DHT22;63849;47.546;19.254;2023-03-23T06:59:44;13.00;60.30
51215;DHT22;63849;47.546;19.254;2023-03-23T07:02:14;13.00;58.60
51215;DHT22;63849;47.546;19.254;2023-03-23T07:04:41;13.00;59.50
51215;DHT22;63849;47.546;19.254;2023-03-23T07:07:11;13.20;59.80
51215;DHT22;63849;47.546;19.254;2023-03-23T07:09:39;13.20;58.30
51215;DHT22;63849;47.546;19.254;2023-03-23T07:12:06;13.40;59.30
51215;DHT22;63849;47.546;19.254;2023-03-23T07:14:33;13.40;58.90
51215;DHT22;63849;47.546;19.254;2023-03-23T07:17:02;13.60;58.60
51215;DHT22;63849;47.546;19.254;2023-03-23T07:19:29;13.50;57.90
51215;DHT22;63849;47.546;19.254;2023-03-23T07:21:55;13.60;58.50
51215;DHT22;63849;47.546;19.254;2023-03-23T07:24:22;13.60;58.00
51215;DHT22;63849;47.546;19.254;2023-03-23T07:26:51;13.70;59.00
51215;DHT22;63849;47.546;19.254;2023-03-23T07:29:20;13.80;57.00
51215;DHT22;63849;47.546;19.254;2023-03-23T07:31:48;13.90;57.40
51215;DHT22;63849;47.546;19.254;2023-03-23T07:34:14;13.80;56.30
51215;DHT22;63849;47.546;19.254;2023-03-23T07:36:40;13.80;57.00
51215;DHT22;63849;47.546;19.254;2023-03-23T07:39:06;13.90;57.70
51215;DHT22;63849;47.546;19.254;2023-03-23T07:41:32;13.90;58.20
51215;DHT22;63849;47.546;19.254;2023-03-23T07:43:59;14.00;57.10
51215;DHT22;63849;47.546;19.254;2023-03-23T07:46:25;14.00;57.10
51215;DHT22;63849;47.546;19.254;2023-03-23T07:48:51;14.10;56.50
51215;DHT22;63849;47.546;19.254;2023-03-23T07:51:17;14.10;56.40
51215;DHT22;63849;47.546;19.254;2023-03-23T07:53:44;14.20;56.60
51215;DHT22;63849;47.546;19.254;2023-03-23T07:56:12;14.30;56.40
51215;DHT22;63849;47.546;19.254;2023-03-23T07:58:41;14.30;56.60
51215;DHT22;63849;47.546;19.254;2023-03-23T08:01:06;14.30;56.40
51215;DHT22;63849;47.546;19.254;2023-03-23T08:03:33;14.40;55.80
51215;DHT22;63849;47.546;19.254;2023-03-23T08:05:59;14.50;56.00
51215;DHT22;63849;47.546;19.254;2023-03-23T08:08:26;14.50;55.90
51215;DHT22;63849;47.546;19.254;2023-03-23T08:10:51;14.50;56.30
51215;DHT22;63849;47.546;19.254;2023-03-23T08:13:17;14.60;56.00
51215;DHT22;63849;47.546;19.254;2023-03-23T08:15:44;14.60;56.20
51215;DHT22;63849;47.546;19.254;2023-03-23T08:18:10;14.60;55.70
51215;DHT22;63849;47.546;19.254;2023-03-23T08:20:37;14.70;55.60
51215;DHT22;63849;47.546;19.254;2023-03-23T08:23:03;14.70;55.00
51215;DHT22;63849;47.546;19.254;2023-03-23T08:25:30;14.70;55.70
51215;DHT22;63849;47.546;19.254;2023-03-23T08:27:59;14.70;56.40
51215;DHT22;63849;47.546;19.254;2023-03-23T08:30:27;14.80;56.10
51215;DHT22;63849;47.546;19.254;2023-03-23T08:32:57;14.90;54.40
51215;DHT22;63849;47.546;19.254;2023-03-23T08:35:23;15.00;54.50
51215;DHT22;63849;47.546;19.254;2023-03-23T08:37:49;15.00;54.60
51215;DHT22;63849;47.546;19.254;2023-03-23T08:40:21;15.00;55.30
51215;DHT22;63849;47.546;19.254;2023-03-23T08:42:48;15.10;54.60
51215;DHT22;63849;47.546;19.254;2023-03-23T08:45:19;15.10;55.30
51215;DHT22;63849;47.546;19.254;2023-03-23T08:47:45;15.20;55.00
51215;DHT22;63849;47.546;19.254;2023-03-23T08:50:14;15.30;54.10
51215;DHT22;63849;47.546;19.254;2023-03-23T08:52:40;15.30;53.20
51215;DHT22;63849;47.546;19.254;2023-03-23T08:55:07;15.30;53.80
51215;DHT22;63849;47.546;19.254;2023-03-23T08:57:35;15.40;53.30
51215;DHT22;63849;47.546;19.254;2023-03-23T09:00:03;15.50;53.40
51215;DHT22;63849;47.546;19.254;2023-03-23T09:02:40;15.60;54.00
51215;DHT22;63849;47.546;19.254;2023-03-23T09:05:06;15.60;54.30
51215;DHT22;63849;47.546;19.254;2023-03-23T09:07:32;15.60;53.30
51215;DHT22;63849;47.546;19.254;2023-03-23T09:09:58;15.70;54.20
51215;DHT22;63849;47.546;19.254;2023-03-23T09:12:24;15.80;54.00
51215;DHT22;63849;47.546;19.254;2023-03-23T09:14:49;15.90;52.80
51215;DHT22;63849;47.546;19.254;2023-03-23T09:17:15;16.00;50.90
51215;DHT22;63849;47.546;19.254;2023-03-23T09:19:41;16.10;51.50
51215;DHT22;63849;47.546;19.254;2023-03-23T09:22:07;16.10;49.80
51215;DHT22;63849;47.546;19.254;2023-03-23T09:24:34;16.10;51.40
51215;DHT22;63849;47.546;19.254;2023-03-23T09:27:00;16.20;51.30
51215;DHT22;63849;47.546;19.254;2023-03-23T09:29:26;16.10;50.90
51215;DHT22;63849;47.546;19.254;2023-03-23T09:31:53;16.10;50.50
51215;DHT22;63849;47.546;19.254;2023-03-23T09:34:19;16.10;51.50
51215;DHT22;63849;47.546;19.254;2023-03-23T09:36:46;16.00;51.50
51215;DHT22;63849;47.546;19.254;2023-03-23T09:39:12;16.00;50.80
51215;DHT22;63849;47.546;19.254;2023-03-23T09:41:54;16.00;51.20
51215;DHT22;63849;47.546;19.254;2023-03-23T09:44:36;16.10;51.90
51215;DHT22;63849;47.546;19.254;2023-03-23T09:47:35;16.20;51.20
51215;DHT22;63849;47.546;19.254;2023-03-23T09:52:39;16.60;52.40
51215;DHT22;63849;47.546;19.254;2023-03-23T09:55:11;16.60;50.60
51215;DHT22;63849;47.546;19.254;2023-03-23T10:00:34;16.90;50.40
51215;DHT22;63849;47.546;19.254;2023-03-23T10:03:16;16.90;50.00
51215;DHT22;63849;47.546;19.254;2023-03-23T10:05:46;16.90;49.90
51215;DHT22;63849;47.546;19.254;2023-03-23T10:08:18;16.90;50.40
51215;DHT22;63849;47.546;19.254;2023-03-23T10:10:58;17.00;49.80
51215;DHT22;63849;47.546;19.254;2023-03-23T10:16:15;17.20;48.90
51215;DHT22;63849;47.546;19.254;2023-03-23T10:19:03;17.30;48.20
51215;DHT22;63849;47.546;19.254;2023-03-23T10:21:32;17.30;48.90
51215;DHT22;63849;47.546;19.254;2023-03-23T10:24:04;17.40;48.30
51215;DHT22;63849;47.546;19.254;2023-03-23T10:29:12;17.60;47.40
51215;DHT22;63849;47.546;19.254;2023-03-23T10:32:34;17.60;46.40
51215;DHT22;63849;47.546;19.254;2023-03-23T10:37:18;17.70;45.20
51215;DHT22;63849;47.546;19.254;2023-03-23T10:39:52;17.70;44.60
51215;DHT22;63849;47.546;19.254;2023-03-23T10:42:32;17.80;45.00
51215;DHT22;63849;47.546;19.254;2023-03-23T10:45:00;17.80;44.90
51215;DHT22;63849;47.546;19.254;2023-03-23T10:47:37;17.90;45.50
51215;DHT22;63849;47.546;19.254;2023-03-23T10:50:05;17.80;45.40
51215;DHT22;63849;47.546;19.254;2023-03-23T10:52:39;17.90;45.60
51215;DHT22;63849;47.546;19.254;2023-03-23T10:55:14;17.90;45.60
51215;DHT22;63849;47.546;19.254;2023-03-23T10:57:45;17.90;45.60
51215;DHT22;63849;47.546;19.254;2023-03-23T11:03:03;17.80;43.90
51215;DHT22;63849;47.546;19.254;2023-03-23T11:05:40;17.80;44.80
51215;DHT22;63849;47.546;19.254;2023-03-23T11:08:36;17.80;45.10
51215;DHT22;63849;47.546;19.254;2023-03-23T11:13:45;17.90;45.70
51215;DHT22;63849;47.546;19.254;2023-03-23T11:18:54;17.90;46.00
51215;DHT22;63849;47.546;19.254;2023-03-23T11:21:22;18.00;45.90
51215;DHT22;63849;47.546;19.254;2023-03-23T11:23:54;18.00;46.20
51215;DHT22;63849;47.546;19.254;2023-03-23T11:26:28;18.10;45.30
51215;DHT22;63849;47.546;19.254;2023-03-23T11:28:57;18.10;45.70
51215;DHT22;63849;47.546;19.254;2023-03-23T11:31:33;18.20;45.20
51215;DHT22;63849;47.546;19.254;2023-03-23T11:36:35;18.10;45.40
51215;DHT22;63849;47.546;19.254;2023-03-23T11:39:01;18.10;45.30
51215;DHT22;63849;47.546;19.254;2023-03-23T11:41:37;18.10;45.20
51215;DHT22;63849;47.546;19.254;2023-03-23T11:44:09;18.20;45.90
51215;DHT22;63849;47.546;19.254;2023-03-23T11:49:41;18.10;45.30
51215;DHT22;63849;47.546;19.254;2023-03-23T11:55:50;18.10;45.40
51215;DHT22;63849;47.546;19.254;2023-03-23T11:58:19;18.00;45.20
51215;DHT22;63849;47.546;19.254;2023-03-23T12:00:58;18.00;45.80
51215;DHT22;63849;47.546;19.254;2023-03-23T12:09:18;17.60;45.30
51215;DHT22;63849;47.546;19.254;2023-03-23T12:12:09;17.60;46.80
51215;DHT22;63849;47.546;19.254;2023-03-23T12:15:38;17.60;46.60
51215;DHT22;63849;47.546;19.254;2023-03-23T12:18:36;17.50;47.10
51215;DHT22;63849;47.546;19.254;2023-03-23T12:24:02;17.70;46.20
51215;DHT22;63849;47.546;19.254;2023-03-23T12:26:56;17.80;45.20
51215;DHT22;63849;47.546;19.254;2023-03-23T12:29:45;17.70;45.40
51215;DHT22;63849;47.546;19.254;2023-03-23T12:32:32;17.80;46.20
51215;DHT22;63849;47.546;19.254;2023-03-23T12:37:54;17.90;45.60
51215;DHT22;63849;47.546;19.254;2023-03-23T12:40:48;17.90;46.20
51215;DHT22;63849;47.546;19.254;2023-03-23T12:43:24;17.90;46.20
51215;DHT22;63849;47.546;19.254;2023-03-23T12:48:41;17.90;46.20
51215;DHT22;63849;47.546;19.254;2023-03-23T12:51:21;17.90;45.70
51215;DHT22;63849;47.546;19.254;2023-03-23T12:53:58;17.90;45.70
51215;DHT22;63849;47.546;19.254;2023-03-23T12:59:19;17.90;45.90
51215;DHT22;63849;47.546;19.254;2023-03-23T13:01:52;17.90;45.70
51215;DHT22;63849;47.546;19.254;2023-03-23T13:04:27;18.00;45.60
51215;DHT22;63849;47.546;19.254;2023-03-23T13:06:55;18.00;45.10
51215;DHT22;63849;47.546;19.254;2023-03-23T13:12:11;17.90;44.90
51215;DHT22;63849;47.546;19.254;2023-03-23T13:23:20;18.00;45.30
51215;DHT22;63849;47.546;19.254;2023-03-23T13:28:34;17.90;45.50
51215;DHT22;63849;47.546;19.254;2023-03-23T13:31:10;17.90;45.60
51215;DHT22;63849;47.546;19.254;2023-03-23T13:33:37;17.90;45.10
51215;DHT22;63849;47.546;19.254;2023-03-23T13:36:14;17.90;46.20
51215;DHT22;63849;47.546;19.254;2023-03-23T13:38:49;17.90;46.30
51215;DHT22;63849;47.546;19.254;2023-03-23T13:41:18;17.90;45.70
51215;DHT22;63849;47.546;19.254;2023-03-23T13:43:45;17.90;46.50
51215;DHT22;63849;47.546;19.254;2023-03-23T13:48:51;17.90;45.70
51215;DHT22;63849;47.546;19.254;2023-03-23T13:51:52;18.00;45.30
51215;DHT22;63849;47.546;19.254;2023-03-23T13:54:31;17.90;45.40
51215;DHT22;63849;47.546;19.254;2023-03-23T13:57:02;18.00;44.00
51215;DHT22;63849;47.546;19.254;2023-03-23T13:59:33;18.10;44.90
51215;DHT22;63849;47.546;19.254;2023-03-23T14:02:32;18.10;44.00
51215;DHT22;63849;47.546;19.254;2023-03-23T14:05:09;18.30;45.10
51215;DHT22;63849;47.546;19.254;2023-03-23T14:07:56;18.10;44.50
51215;DHT22;63849;47.546;19.254;2023-03-23T14:11:12;18.10;44.80
51215;DHT22;63849;47.546;19.254;2023-03-23T14:13:23;18.00;44.90
51215;DHT22;63849;47.546;19.254;2023-03-23T14:16:03;18.10;45.20
51215;DHT22;63849;47.546;19.254;2023-03-23T14:18:36;18.00;45.10
51215;DHT22;63849;47.546;19.254;2023-03-23T14:21:03;18.00;45.20
51215;DHT22;63849;47.546;19.254;2023-03-23T14:23:31;17.90;46.20
51215;DHT22;63849;47.546;19.254;2023-03-23T14:26:17;18.00;45.60
51215;DHT22;63849;47.546;19.254;2023-03-23T14:28:45;18.00;45.00
51215;DHT22;63849;47.546;19.254;2023-03-23T14:31:23;18.00;45.30
51215;DHT22;63849;47.546;19.254;2023-03-23T14:33:50;17.90;45.20
51215;DHT22;63849;47.546;19.254;2023-03-23T14:36:26;17.90;45.40
51215;DHT22;63849;47.546;19.254;2023-03-23T14:39:07;17.90;46.30
51215;DHT22;63849;47.546;19.254;2023-03-23T14:41:38;17.80;45.50
51215;DHT22;63849;47.546;19.254;2023-03-23T14:44:07;17.80;46.00
51215;DHT22;63849;47.546;19.254;2023-03-23T14:46:34;17.90;45.80
51215;DHT22;63849;47.546;19.254;2023-03-23T14:49:05;17.90;45.60
51215;DHT22;63849;47.546;19.254;2023-03-23T14:51:31;17.80;46.30
51215;DHT22;63849;47.546;19.254;2023-03-23T14:53:59;17.80;46.50
51215;DHT22;63849;47.546;19.254;2023-03-23T14:56:36;17.70;45.90
51215;DHT22;63849;47.546;19.254;2023-03-23T14:59:06;17.60;46.40
51215;DHT22;63849;47.546;19.254;2023-03-23T15:01:36;17.60;46.20
51215;DHT22;63849;47.546;19.254;2023-03-23T15:04:16;17.60;45.80
51215;DHT22;63849;47.546;19.254;2023-03-23T15:06:49;17.60;46.10
51215;DHT22;63849;47.546;19.254;2023-03-23T15:09:19;17.60;46.30
51215;DHT22;63849;47.546;19.254;2023-03-23T15:12:02;17.50;46.50
51215;DHT22;63849;47.546;19.254;2023-03-23T15:17:31;17.50;46.70
51215;DHT22;63849;47.546;19.254;2023-03-23T15:20:19;17.40;46.90
51215;DHT22;63849;47.546;19.254;2023-03-23T15:22:46;17.40;46.80
51215;DHT22;63849;47.546;19.254;2023-03-23T15:25:22;17.50;46.90
51215;DHT22;63849;47.546;19.254;2023-03-23T15:28:21;17.40;47.50
51215;DHT22;63849;47.546;19.254;2023-03-23T15:30:52;17.40;47.70
51215;DHT22;63849;47.546;19.254;2023-03-23T15:33:20;17.40;47.30
51215;DHT22;63849;47.546;19.254;2023-03-23T15:35:52;17.40;47.60
51215;DHT22;63849;47.546;19.254;2023-03-23T15:38:30;17.40;47.80
51215;DHT22;63849;47.546;19.254;2023-03-23T15:41:06;17.30;47.90
51215;DHT22;63849;47.546;19.254;2023-03-23T15:43:54;17.20;48.30
51215;DHT22;63849;47.546;19.254;2023-03-23T15:46:24;17.20;48.00
51215;DHT22;63849;47.546;19.254;2023-03-23T15:51:27;17.00;47.80
51215;DHT22;63849;47.546;19.254;2023-03-23T15:53:55;17.10;47.70
51215;DHT22;63849;47.546;19.254;2023-03-23T15:56:21;17.10;47.10
51215;DHT22;63849;47.546;19.254;2023-03-23T15:58:48;17.00;47.60
51215;DHT22;63849;47.546;19.254;2023-03-23T16:01:19;16.90;48.00
51215;DHT22;63849;47.546;19.254;2023-03-23T16:03:50;16.90;47.90
51215;DHT22;63849;47.546;19.254;2023-03-23T16:06:21;16.90;48.00
51215;DHT22;63849;47.546;19.254;2023-03-23T16:08:47;16.80;48.10
51215;DHT22;63849;47.546;19.254;2023-03-23T16:11:15;16.80;48.20
51215;DHT22;63849;47.546;19.254;2023-03-23T16:13:41;16.80;47.90
51215;DHT22;63849;47.546;19.254;2023-03-23T16:18:40;16.60;48.30
51215;DHT22;63849;47.546;19.254;2023-03-23T16:21:06;16.60;48.60
51215;DHT22;63849;47.546;19.254;2023-03-23T16:23:32;16.50;49.00
51215;DHT22;63849;47.546;19.254;2023-03-23T16:25:58;16.40;49.10
51215;DHT22;63849;47.546;19.254;2023-03-23T16:28:23;16.30;49.50
51215;DHT22;63849;47.546;19.254;2023-03-23T16:30:49;16.30;49.40
51215;DHT22;63849;47.546;19.254;2023-03-23T16:33:15;16.30;49.00
51215;DHT22;63849;47.546;19.254;2023-03-23T16:35:41;16.30;49.40
51215;DHT22;63849;47.546;19.254;2023-03-23T16:38:15;16.30;49.60
51215;DHT22;63849;47.546;19.254;2023-03-23T16:40:42;16.10;49.80
51215;DHT22;63849;47.546;19.254;2023-03-23T16:43:09;16.10;50.00
51215;DHT22;63849;47.546;19.254;2023-03-23T16:45:40;16.10;49.80
51215;DHT22;63849;47.546;19.254;2023-03-23T16:48:07;16.00;50.00
51215;DHT22;63849;47.546;19.254;2023-03-23T16:50:34;15.90;50.40
51215;DHT22;63849;47.546;19.254;2023-03-23T16:53:01;15.80;50.40
51215;DHT22;63849;47.546;19.254;2023-03-23T16:55:27;15.80;50.40
51215;DHT22;63849;47.546;19.254;2023-03-23T16:57:53;15.70;50.60
51215;DHT22;63849;47.546;19.254;2023-03-23T17:00:20;15.60;50.40
51215;DHT22;63849;47.546;19.254;2023-03-23T17:02:51;15.60;50.70
51215;DHT22;63849;47.546;19.254;2023-03-23T17:05:18;15.50;50.90
51215;DHT22;63849;47.546;19.254;2023-03-23T17:07:45;15.40;51.00
51215;DHT22;63849;47.546;19.254;2023-03-23T17:10:12;15.40;51.10
51215;DHT22;63849;47.546;19.254;2023-03-23T17:12:38;15.30;51.20
51215;DHT22;63849;47.546;19.254;2023-03-23T17:15:05;15.30;51.30
51215;DHT22;63849;47.546;19.254;2023-03-23T17:17:33;15.30;51.30
51215;DHT22;63849;47.546;19.254;2023-03-23T17:19:59;15.20;51.50
51215;DHT22;63849;47.546;19.254;2023-03-23T17:22:26;15.10;51.60